Time;durP1;ratioP1;P1;durP2;ratioP2;P2;SDS_P1;SDS_P2;PMS_P1;PMS_P2;Temp;Humidity;BMP_temperature;BMP_pressure;BME280_temperature;BME280_humidity;BME280_pressure;Samples;Min_cycle;Max_cycle;Signal;HPM_P1;HPM_P2
2022/11/21 00:00:45;;;;;;;1.10;1.00;;;;;;;;;;4998407;28;20057;-73
2022/11/21 00:03:11;;;;;;;0.82;0.80;;;;;;;;;;5000636;28;20069;-72
2022/11/21 00:05:42;;;;;;;0.98;0.85;;;;;;;;;;5000539;28;20050;-71
2022/11/21 00:08:11;;;;;;;1.88;1.00;;;;;;;;;;4999745;28;20049;-72
2022/11/21 00:10:38;;;;;;;1.13;0.70;;;;;;;;;;4996931;28;20057;-72
2022/11/21 00:13:04;;;;;;;0.70;0.70;;;;;;;;;;5000286;28;20050;-72
2022/11/21 00:15:30;;;;;;;1.15;0.68;;;;;;;;;;4998504;28;20050;-72
2022/11/21 00:17:56;;;;;;;0.40;0.40;;;;;;;;;;4999573;28;20201;-72
2022/11/21 00:20:22;;;;;;;2.08;0.80;;;;;;;;;;4998289;28;20049;-72
2022/11/21 00:22:48;;;;;;;5.45;0.60;;;;;;;;;;5003249;28;20053;-73
2022/11/21 00:25:14;;;;;;;0.77;0.77;;;;;;;;;;5004183;28;20148;-71
2022/11/21 00:27:39;;;;;;;0.50;0.50;;;;;;;;;;5004229;28;20141;-72
2022/11/21 00:30:07;;;;;;;0.50;0.50;;;;;;;;;;5003047;28;20107;-73
2022/11/21 00:32:32;;;;;;;0.73;0.68;;;;;;;;;;5002886;28;20054;-71
2022/11/21 00:34:58;;;;;;;0.73;0.60;;;;;;;;;;5003990;28;20042;-70
2022/11/21 00:37:23;;;;;;;0.40;0.40;;;;;;;;;;5003789;28;21121;-68
2022/11/21 00:39:48;;;;;;;0.57;0.57;;;;;;;;;;5003779;28;20360;-69
2022/11/21 00:42:14;;;;;;;0.50;0.50;;;;;;;;;;5001953;28;20407;-69
2022/11/21 00:44:39;;;;;;;0.45;0.45;;;;;;;;;;5003516;28;20080;-69
2022/11/21 00:47:05;;;;;;;0.47;0.47;;;;;;;;;;5003361;28;20208;-68
2022/11/21 00:49:30;;;;;;;0.50;0.40;;;;;;;;;;5002763;28;20107;-69
2022/11/21 00:51:56;;;;;;;0.40;0.40;;;;;;;;;;5002992;28;20041;-68
2022/11/21 00:54:21;;;;;;;0.60;0.60;;;;;;;;;;5001629;28;20041;-70
2022/11/21 00:56:47;;;;;;;2.72;0.32;;;;;;;;;;5003790;28;20046;-67
2022/11/21 00:59:12;;;;;;;0.60;0.60;;;;;;;;;;5003419;28;20045;-68
2022/11/21 01:01:37;;;;;;;0.40;0.40;;;;;;;;;;5004285;28;20075;-71
2022/11/21 01:04:04;;;;;;;1.23;0.60;;;;;;;;;;5002751;28;20042;-72
2022/11/21 01:06:29;;;;;;;0.75;0.60;;;;;;;;;;5002493;28;20125;-70
2022/11/21 01:08:55;;;;;;;0.50;0.45;;;;;;;;;;4998973;28;20179;-72
2022/11/21 01:11:22;;;;;;;3.30;0.98;;;;;;;;;;4999594;28;20087;-73
2022/11/21 01:13:48;;;;;;;0.50;0.50;;;;;;;;;;5000033;28;20975;-72
2022/11/21 01:16:19;;;;;;;0.65;0.40;;;;;;;;;;4998458;28;20107;-73
2022/11/21 01:18:45;;;;;;;1.20;0.60;;;;;;;;;;5000073;28;20073;-72
2022/11/21 01:21:17;;;;;;;0.45;0.45;;;;;;;;;;5002964;28;20053;-73
2022/11/21 01:23:43;;;;;;;0.50;0.50;;;;;;;;;;5003170;28;20513;-70
2022/11/21 01:26:17;;;;;;;1.58;0.43;;;;;;;;;;5002859;28;20046;-70
2022/11/21 01:28:43;;;;;;;0.40;0.40;;;;;;;;;;5002922;28;20054;-70
2022/11/21 01:31:16;;;;;;;0.30;0.30;;;;;;;;;;5000964;28;20045;-70
2022/11/21 01:33:42;;;;;;;0.60;0.60;;;;;;;;;;5001903;28;20723;-71
2022/11/21 01:36:22;;;;;;;0.50;0.50;;;;;;;;;;5002644;28;20033;-72
2022/11/21 01:38:51;;;;;;;0.40;0.40;;;;;;;;;;5002633;28;20419;-72
2022/11/21 01:41:32;;;;;;;0.70;0.70;;;;;;;;;;5001129;28;20041;-70
2022/11/21 01:43:58;;;;;;;0.50;0.50;;;;;;;;;;5002045;28;20041;-70
2022/11/21 01:46:25;;;;;;;0.82;0.40;;;;;;;;;;5002516;28;20058;-73
2022/11/21 01:49:21;;;;;;;0.50;0.50;;;;;;;;;;5002421;28;20037;-72
2022/11/21 01:52:11;;;;;;;0.50;0.50;;;;;;;;;;5000753;28;20096;-70
2022/11/21 01:54:46;;;;;;;0.60;0.60;;;;;;;;;;4999793;28;20136;-69
2022/11/21 01:57:16;;;;;;;0.60;0.60;;;;;;;;;;5001066;28;20046;-69
2022/11/21 01:59:44;;;;;;;0.57;0.57;;;;;;;;;;5001959;28;20053;-73
2022/11/21 02:02:12;;;;;;;1.38;0.68;;;;;;;;;;4999533;28;20064;-70
2022/11/21 02:04:41;;;;;;;0.50;0.50;;;;;;;;;;5002216;28;20516;-69
2022/11/21 02:07:07;;;;;;;0.60;0.60;;;;;;;;;;5002310;28;20204;-68
2022/11/21 02:09:36;;;;;;;1.35;0.55;;;;;;;;;;5001313;28;20511;-69
2022/11/21 02:12:08;;;;;;;0.30;0.30;;;;;;;;;;5001432;28;20057;-69
2022/11/21 02:14:34;;;;;;;;;;;;;;;;;;5000956;28;20046;-68
2022/11/21 02:17:03;;;;;;;0.43;0.43;;;;;;;;;;5005636;28;19921;-68
2022/11/21 02:19:46;;;;;;;0.57;0.55;;;;;;;;;;5000275;28;20042;-68
2022/11/21 02:22:25;;;;;;;0.50;0.50;;;;;;;;;;5001647;28;20079;-68
2022/11/21 02:25:08;;;;;;;0.70;0.70;;;;;;;;;;5000492;28;20057;-70
2022/11/21 02:27:34;;;;;;;0.70;0.70;;;;;;;;;;5001904;28;20145;-68
2022/11/21 02:30:05;;;;;;;0.95;0.57;;;;;;;;;;5000737;28;20128;-69
2022/11/21 02:32:40;;;;;;;0.60;0.60;;;;;;;;;;4989295;28;20061;-68
2022/11/21 02:35:06;;;;;;;0.65;0.50;;;;;;;;;;5000845;28;20515;-68
2022/11/21 02:37:34;;;;;;;0.85;0.40;;;;;;;;;;5001299;28;20046;-69
2022/11/21 02:40:04;;;;;;;4.13;0.40;;;;;;;;;;5000893;28;20057;-69
2022/11/21 02:42:35;;;;;;;1.35;0.77;;;;;;;;;;4999234;28;20037;-70
2022/11/21 02:45:29;;;;;;;2.43;0.70;;;;;;;;;;4998297;28;20045;-69
2022/11/21 02:47:55;;;;;;;1.45;0.50;;;;;;;;;;4990050;28;20046;-69
2022/11/21 02:50:34;;;;;;;0.73;0.60;;;;;;;;;;5001073;28;20049;-69
2022/11/21 02:53:01;;;;;;;3.97;0.40;;;;;;;;;;5001372;28;20145;-71
2022/11/21 02:55:27;;;;;;;0.63;0.63;;;;;;;;;;5001480;28;20050;-69
2022/11/21 02:57:53;;;;;;;0.95;0.70;;;;;;;;;;4999631;28;20063;-69
2022/11/21 03:00:19;;;;;;;1.73;0.70;;;;;;;;;;5000001;28;20377;-69
2022/11/21 03:02:45;;;;;;;1.10;0.50;;;;;;;;;;5001865;28;20450;-69
2022/11/21 03:05:13;;;;;;;0.60;0.60;;;;;;;;;;5001079;28;20049;-68
2022/11/21 03:07:38;;;;;;;0.50;0.50;;;;;;;;;;5000875;28;20081;-68
2022/11/21 03:10:04;;;;;;;0.68;0.63;;;;;;;;;;4998698;28;20518;-68
2022/11/21 03:12:30;;;;;;;0.68;0.60;;;;;;;;;;5001173;28;20050;-69
2022/11/21 03:14:55;;;;;;;0.50;0.50;;;;;;;;;;5000025;28;20052;-68
2022/11/21 03:17:21;;;;;;;0.80;0.80;;;;;;;;;;5000733;28;20056;-68
2022/11/21 03:19:46;;;;;;;0.50;0.50;;;;;;;;;;4999684;28;20088;-67
2022/11/21 03:22:13;;;;;;;0.60;0.60;;;;;;;;;;5000118;28;20037;-68
2022/11/21 03:24:38;;;;;;;1.20;0.95;;;;;;;;;;5001232;28;20498;-67
2022/11/21 03:27:04;;;;;;;2.10;1.10;;;;;;;;;;5001266;28;20041;-68
2022/11/21 03:29:29;;;;;;;0.47;0.47;;;;;;;;;;5000646;28;20049;-68
2022/11/21 03:31:55;;;;;;;1.95;0.50;;;;;;;;;;4998712;28;20180;-67
2022/11/21 03:34:20;;;;;;;0.60;0.60;;;;;;;;;;5001042;28;20070;-68
2022/11/21 03:36:45;;;;;;;1.15;0.63;;;;;;;;;;5000756;28;20514;-68
2022/11/21 03:39:11;;;;;;;0.77;0.55;;;;;;;;;;5000966;28;20630;-68
2022/11/21 03:41:36;;;;;;;1.17;0.82;;;;;;;;;;4998615;28;20064;-69
2022/11/21 03:44:07;;;;;;;1.40;0.75;;;;;;;;;;5000640;28;20033;-69
2022/11/21 03:46:35;;;;;;;1.65;1.08;;;;;;;;;;5000084;28;20050;-68
2022/11/21 03:49:01;;;;;;;0.40;0.40;;;;;;;;;;5000802;28;20108;-68
2022/11/21 03:51:27;;;;;;;0.70;0.57;;;;;;;;;;4999573;28;20438;-68
2022/11/21 03:53:53;;;;;;;0.73;0.60;;;;;;;;;;4999126;28;20041;-68
2022/11/21 03:56:19;;;;;;;1.08;0.82;;;;;;;;;;4998919;28;20058;-69
2022/11/21 03:58:44;;;;;;;0.55;0.43;;;;;;;;;;5000913;28;20060;-68
2022/11/21 04:01:12;;;;;;;0.52;0.50;;;;;;;;;;4997565;28;20053;-68
2022/11/21 04:03:39;;;;;;;0.88;0.55;;;;;;;;;;4999724;28;20045;-67
2022/11/21 04:06:04;;;;;;;0.98;0.60;;;;;;;;;;4999803;28;20050;-68
2022/11/21 04:08:29;;;;;;;1.90;0.60;;;;;;;;;;4999625;28;20120;-68
2022/11/21 04:10:55;;;;;;;0.80;0.68;;;;;;;;;;5000488;28;20149;-69
2022/11/21 04:13:21;;;;;;;2.45;0.60;;;;;;;;;;5000944;28;20046;-68
2022/11/21 04:15:46;;;;;;;1.30;0.52;;;;;;;;;;4999312;28;20052;-69
2022/11/21 04:18:12;;;;;;;1.58;0.80;;;;;;;;;;5000057;28;20073;-68
2022/11/21 04:20:38;;;;;;;0.95;0.80;;;;;;;;;;4997877;28;20112;-69
2022/11/21 04:23:04;;;;;;;0.90;0.60;;;;;;;;;;5000923;28;20080;-67
2022/11/21 04:25:30;;;;;;;0.80;0.60;;;;;;;;;;4998450;28;20062;-68
2022/11/21 04:27:57;;;;;;;0.55;0.52;;;;;;;;;;5000075;28;20124;-69
2022/11/21 04:30:22;;;;;;;1.42;0.50;;;;;;;;;;4999001;28;20501;-68
2022/11/21 04:32:55;;;;;;;1.63;0.82;;;;;;;;;;5000721;28;20046;-70
2022/11/21 04:35:21;;;;;;;0.40;0.40;;;;;;;;;;5000033;28;20792;-69
2022/11/21 04:37:47;;;;;;;1.70;0.70;;;;;;;;;;4999621;28;20045;-69
2022/11/21 04:40:13;;;;;;;0.95;0.52;;;;;;;;;;4998991;28;20041;-69
2022/11/21 04:42:46;;;;;;;1.45;0.43;;;;;;;;;;4996595;28;20052;-69
2022/11/21 04:45:13;;;;;;;0.95;0.80;;;;;;;;;;4998454;28;20041;-69
2022/11/21 04:47:40;;;;;;;4.13;0.85;;;;;;;;;;4998284;28;20045;-69
2022/11/21 04:50:07;;;;;;;1.83;0.50;;;;;;;;;;4998946;28;20069;-69
2022/11/21 04:52:34;;;;;;;1.95;0.70;;;;;;;;;;4999724;28;20046;-68
2022/11/21 04:54:59;;;;;;;1.48;0.60;;;;;;;;;;4998928;28;20073;-72
2022/11/21 04:57:27;;;;;;;0.40;0.40;;;;;;;;;;4996074;28;20045;-72
2022/11/21 04:59:52;;;;;;;1.45;0.88;;;;;;;;;;4998449;28;20053;-72
2022/11/21 05:02:18;;;;;;;3.08;0.88;;;;;;;;;;4997616;28;20050;-72
2022/11/21 05:04:43;;;;;;;1.35;0.57;;;;;;;;;;4997943;28;20394;-72
2022/11/21 05:07:09;;;;;;;1.85;0.60;;;;;;;;;;5000009;28;20088;-72
2022/11/21 05:09:34;;;;;;;2.83;1.33;;;;;;;;;;5000186;28;20076;-72
2022/11/21 05:14:44;;;;;;;1.92;0.45;;;;;;;;;;5002320;28;20131;-72
2022/11/21 05:17:10;;;;;;;2.38;0.50;;;;;;;;;;4999977;28;20136;-72
2022/11/21 05:19:35;;;;;;;0.73;0.73;;;;;;;;;;4997872;28;20167;-72
2022/11/21 05:22:00;;;;;;;1.00;0.60;;;;;;;;;;4997939;28;20046;-72
2022/11/21 05:24:26;;;;;;;6.45;0.90;;;;;;;;;;4998252;28;20423;-72
2022/11/21 05:26:53;;;;;;;3.85;0.95;;;;;;;;;;4998004;28;20046;-72
2022/11/21 05:29:18;;;;;;;1.20;0.80;;;;;;;;;;4999437;28;20038;-72
2022/11/21 05:31:43;;;;;;;3.78;0.98;;;;;;;;;;4999463;28;20065;-72
2022/11/21 05:34:09;;;;;;;0.55;0.55;;;;;;;;;;4999268;28;20586;-73
2022/11/21 05:36:34;;;;;;;0.95;0.77;;;;;;;;;;5004268;28;20100;-73
2022/11/21 05:39:00;;;;;;;0.63;0.63;;;;;;;;;;5000970;28;20049;-73
2022/11/21 05:41:25;;;;;;;3.35;0.50;;;;;;;;;;5002423;28;20112;-72
2022/11/21 05:43:51;;;;;;;1.85;0.68;;;;;;;;;;4997786;28;20036;-75
2022/11/21 05:46:21;;;;;;;3.67;0.60;;;;;;;;;;4987799;28;20046;-72
2022/11/21 05:48:47;;;;;;;1.27;0.55;;;;;;;;;;5001410;28;20050;-72
2022/11/21 05:51:14;;;;;;;1.75;0.40;;;;;;;;;;4998600;28;20082;-71
2022/11/21 05:53:40;;;;;;;1.30;0.50;;;;;;;;;;5003942;28;20042;-71
2022/11/21 05:56:08;;;;;;;1.02;0.75;;;;;;;;;;4999948;28;20499;-72
2022/11/21 05:58:34;;;;;;;1.15;0.70;;;;;;;;;;5000095;28;20053;-71
2022/11/21 06:01:00;;;;;;;0.70;0.40;;;;;;;;;;5004233;28;20532;-70
2022/11/21 06:03:26;;;;;;;1.52;0.60;;;;;;;;;;5000452;28;20046;-71
2022/11/21 06:06:09;;;;;;;0.80;0.60;;;;;;;;;;4997096;28;20045;-73
2022/11/21 06:08:44;;;;;;;1.48;0.70;;;;;;;;;;5013260;28;20046;-71
2022/11/21 06:11:12;;;;;;;0.38;0.38;;;;;;;;;;4999306;28;20046;-71
2022/11/21 06:13:38;;;;;;;1.60;0.50;;;;;;;;;;4998650;28;20121;-71
2022/11/21 06:16:18;;;;;;;2.10;0.50;;;;;;;;;;4997755;28;20091;-73
2022/11/21 06:18:48;;;;;;;1.73;0.77;;;;;;;;;;4996221;28;20097;-73
2022/11/21 06:21:19;;;;;;;1.55;0.50;;;;;;;;;;4999489;28;20053;-73
2022/11/21 06:23:45;;;;;;;1.52;0.50;;;;;;;;;;5001616;28;20121;-71
2022/11/21 06:26:14;;;;;;;0.50;0.50;;;;;;;;;;4997372;28;20052;-72
2022/11/21 06:28:40;;;;;;;0.63;0.50;;;;;;;;;;5000794;28;20044;-73
2022/11/21 06:31:07;;;;;;;2.33;0.60;;;;;;;;;;5001520;28;20411;-73
2022/11/21 06:33:34;;;;;;;2.75;0.50;;;;;;;;;;4999668;28;20074;-72
2022/11/21 06:36:04;;;;;;;0.68;0.43;;;;;;;;;;5001269;28;20359;-75
2022/11/21 06:38:30;;;;;;;2.08;0.45;;;;;;;;;;4999814;28;20065;-74
2022/11/21 06:40:56;;;;;;;2.28;0.57;;;;;;;;;;5001616;28;20073;-72
2022/11/21 06:43:21;;;;;;;0.98;0.50;;;;;;;;;;5001471;28;20069;-72
2022/11/21 06:45:47;;;;;;;1.38;0.68;;;;;;;;;;4999620;28;20100;-73
2022/11/21 06:48:12;;;;;;;1.20;0.60;;;;;;;;;;4999437;28;20125;-74
2022/11/21 06:50:37;;;;;;;2.42;0.60;;;;;;;;;;5000140;28;20065;-73
2022/11/21 06:53:03;;;;;;;1.30;0.40;;;;;;;;;;5000977;28;20399;-72
2022/11/21 06:55:30;;;;;;;0.50;0.50;;;;;;;;;;5001184;28;20038;-73
2022/11/21 06:57:59;;;;;;;0.55;0.55;;;;;;;;;;5000916;28;20045;-72
2022/11/21 07:00:27;;;;;;;2.50;0.65;;;;;;;;;;4999584;28;20087;-72
2022/11/21 07:02:53;;;;;;;1.48;0.80;;;;;;;;;;5001795;28;20652;-76
2022/11/21 07:05:19;;;;;;;1.63;0.70;;;;;;;;;;4999851;28;20050;-73
2022/11/21 07:07:44;;;;;;;0.40;0.40;;;;;;;;;;5001374;28;20104;-72
2022/11/21 07:10:10;;;;;;;0.90;0.40;;;;;;;;;;5000114;28;20057;-74
2022/11/21 07:15:19;;;;;;;0.65;0.60;;;;;;;;;;4999698;28;20041;-74
2022/11/21 07:17:45;;;;;;;1.48;0.70;;;;;;;;;;5000028;28;20050;-72
2022/11/21 07:20:11;;;;;;;1.45;0.60;;;;;;;;;;5000342;28;20124;-72
2022/11/21 07:22:37;;;;;;;1.25;0.50;;;;;;;;;;4999349;28;20056;-73
2022/11/21 07:25:03;;;;;;;1.08;0.70;;;;;;;;;;5000059;28;20053;-74
2022/11/21 07:27:29;;;;;;;0.35;0.35;;;;;;;;;;5002300;28;20046;-72
2022/11/21 07:29:56;;;;;;;1.00;0.57;;;;;;;;;;5000828;28;20057;-72
2022/11/21 07:32:23;;;;;;;0.80;0.80;;;;;;;;;;4998488;28;20560;-75
2022/11/21 07:34:49;;;;;;;0.60;0.60;;;;;;;;;;4999623;28;20056;-70
2022/11/21 07:37:14;;;;;;;0.80;0.80;;;;;;;;;;5000235;28;20046;-73
2022/11/21 07:39:40;;;;;;;2.00;0.50;;;;;;;;;;4999353;28;20061;-72
2022/11/21 07:42:05;;;;;;;0.50;0.50;;;;;;;;;;4998922;28;20042;-73
2022/11/21 07:44:31;;;;;;;0.50;0.50;;;;;;;;;;4998485;28;20128;-74
2022/11/21 07:46:56;;;;;;;0.38;0.30;;;;;;;;;;4998690;28;20056;-71
2022/11/21 07:49:22;;;;;;;2.95;0.55;;;;;;;;;;5000497;28;20080;-71
2022/11/21 07:51:48;;;;;;;3.97;0.50;;;;;;;;;;5000904;28;20092;-78
2022/11/21 07:54:14;;;;;;;0.77;0.50;;;;;;;;;;4996742;28;20057;-75
2022/11/21 07:56:39;;;;;;;3.97;0.50;;;;;;;;;;4998928;28;20038;-75
2022/11/21 07:59:05;;;;;;;0.40;0.40;;;;;;;;;;5000385;28;20530;-74
2022/11/21 08:01:30;;;;;;;0.40;0.40;;;;;;;;;;5000434;28;20041;-73
2022/11/21 08:03:56;;;;;;;0.35;0.30;;;;;;;;;;4998406;28;20091;-73
2022/11/21 08:06:21;;;;;;;0.40;0.40;;;;;;;;;;4999406;28;20058;-73
2022/11/21 08:08:47;;;;;;;1.13;0.50;;;;;;;;;;5000393;28;20060;-73
2022/11/21 08:11:13;;;;;;;1.40;0.40;;;;;;;;;;4998914;28;20056;-74
2022/11/21 08:13:38;;;;;;;0.52;0.52;;;;;;;;;;4998676;28;20062;-74
2022/11/21 08:16:04;;;;;;;0.50;0.50;;;;;;;;;;4998765;28;20038;-74
2022/11/21 08:18:30;;;;;;;1.58;0.40;;;;;;;;;;4996798;28;20084;-72
2022/11/21 08:20:55;;;;;;;1.15;0.30;;;;;;;;;;4996896;28;20108;-72
2022/11/21 08:23:21;;;;;;;0.40;0.40;;;;;;;;;;5000116;28;20048;-74
2022/11/21 08:25:46;;;;;;;0.50;0.50;;;;;;;;;;4999967;28;20140;-71
2022/11/21 08:28:12;;;;;;;0.40;0.40;;;;;;;;;;4998990;28;20037;-73
2022/11/21 08:30:38;;;;;;;0.50;0.50;;;;;;;;;;4998881;28;20064;-72
2022/11/21 08:33:04;;;;;;;0.50;0.30;;;;;;;;;;5000368;28;20077;-75
2022/11/21 08:35:30;;;;;;;0.88;0.40;;;;;;;;;;4999489;28;20053;-74
2022/11/21 08:37:59;;;;;;;1.02;0.30;;;;;;;;;;5000467;28;20050;-74
2022/11/21 08:40:28;;;;;;;0.30;0.30;;;;;;;;;;4996172;28;20041;-72
2022/11/21 08:42:58;;;;;;;1.00;0.60;;;;;;;;;;5003335;28;20136;-73
2022/11/21 08:45:25;;;;;;;0.30;0.30;;;;;;;;;;5002228;28;20057;-71
2022/11/21 08:47:51;;;;;;;0.35;0.35;;;;;;;;;;5003609;28;20049;-72
2022/11/21 08:50:17;;;;;;;0.30;0.30;;;;;;;;;;5000606;28;20070;-73
2022/11/21 08:52:43;;;;;;;0.63;0.30;;;;;;;;;;5004435;28;20046;-72
2022/11/21 08:55:08;;;;;;;0.70;0.40;;;;;;;;;;5004583;28;20659;-73
2022/11/21 08:57:37;;;;;;;0.60;0.40;;;;;;;;;;5003624;28;20107;-74
2022/11/21 09:00:04;;;;;;;0.38;0.30;;;;;;;;;;5002980;28;20069;-73
2022/11/21 09:02:29;;;;;;;0.40;0.40;;;;;;;;;;5002026;28;20057;-74
2022/11/21 09:04:55;;;;;;;0.63;0.60;;;;;;;;;;5004730;28;20061;-74
2022/11/21 09:07:20;;;;;;;0.68;0.60;;;;;;;;;;5005058;28;20046;-73
2022/11/21 09:09:46;;;;;;;0.60;0.32;;;;;;;;;;5002799;28;20054;-73
2022/11/21 09:12:11;;;;;;;0.50;0.30;;;;;;;;;;5003387;28;20041;-74
2022/11/21 09:20:21;;;;;;;2.47;0.50;;;;;;;;;;4970995;28;20117;-75
2022/11/21 09:22:47;;;;;;;1.45;0.50;;;;;;;;;;4998600;28;20537;-72
2022/11/21 09:25:12;;;;;;;4.28;1.17;;;;;;;;;;5004613;28;20503;-74
2022/11/21 09:27:38;;;;;;;0.73;0.52;;;;;;;;;;5004719;28;20057;-73
2022/11/21 09:30:03;;;;;;;1.88;0.60;;;;;;;;;;5002491;28;20046;-73
2022/11/21 09:32:29;;;;;;;0.32;0.32;;;;;;;;;;5002288;28;20084;-72
2022/11/21 09:34:54;;;;;;;2.45;0.60;;;;;;;;;;5001061;28;20180;-73
2022/11/21 09:37:20;;;;;;;0.95;0.60;;;;;;;;;;5002967;28;20042;-72
2022/11/21 09:39:45;;;;;;;0.45;0.45;;;;;;;;;;5001997;28;20042;-73
2022/11/21 09:42:45;;;;;;;2.25;0.70;;;;;;;;;;5001724;28;20522;-73
2022/11/21 09:45:43;;;;;;;0.75;0.30;;;;;;;;;;5001820;28;20045;-74
2022/11/21 09:48:18;;;;;;;0.65;0.47;;;;;;;;;;5004886;28;20133;-73
2022/11/21 09:50:48;;;;;;;0.30;0.30;;;;;;;;;;5003147;28;20030;-72
2022/11/21 09:53:19;;;;;;;0.60;0.60;;;;;;;;;;5004292;28;20133;-71
2022/11/21 09:56:09;;;;;;;0.57;0.57;;;;;;;;;;5000938;28;20052;-72
2022/11/21 09:58:42;;;;;;;2.15;0.65;;;;;;;;;;5014636;28;20284;-73
2022/11/21 10:01:11;;;;;;;0.32;0.32;;;;;;;;;;5001802;28;20086;-73
2022/11/21 10:03:45;;;;;;;1.33;0.73;;;;;;;;;;5001325;28;20455;-73
2022/11/21 10:06:13;;;;;;;1.15;0.50;;;;;;;;;;4999584;28;20033;-74
2022/11/21 10:09:00;;;;;;;0.68;0.30;;;;;;;;;;5000266;28;20057;-71
2022/11/21 10:12:36;;;;;;;1.58;0.50;;;;;;;;;;5002340;28;20033;-73
2022/11/21 10:15:07;;;;;;;0.50;0.50;;;;;;;;;;4971581;28;20514;-72
2022/11/21 10:17:47;;;;;;;6.57;1.80;;;;;;;;;;4978543;28;20128;-69
2022/11/21 10:20:43;;;;;;;0.47;0.40;;;;;;;;;;5000937;28;20096;-72
2022/11/21 10:23:32;;;;;;;0.38;0.38;;;;;;;;;;5010315;28;20042;-71
2022/11/21 10:26:25;;;;;;;1.58;0.28;;;;;;;;;;5000785;28;20054;-76
2022/11/21 10:28:58;;;;;;;1.25;0.50;;;;;;;;;;5007087;28;20132;-72
2022/11/21 10:31:26;;;;;;;2.35;0.50;;;;;;;;;;5001551;28;20056;-69
2022/11/21 10:33:53;;;;;;;1.42;0.60;;;;;;;;;;5003062;28;20042;-72
2022/11/21 10:36:24;;;;;;;3.10;0.60;;;;;;;;;;5002716;28;20463;-74
2022/11/21 10:38:56;;;;;;;0.90;0.63;;;;;;;;;;5003413;28;20046;-70
2022/11/21 10:41:46;;;;;;;0.43;0.40;;;;;;;;;;5002699;28;20096;-71
2022/11/21 10:47:13;;;;;;;;;;;;;;;;;;5000665;28;20041;-70
2022/11/21 10:49:40;;;;;;;1.52;0.57;;;;;;;;;;5005183;28;19921;-73
2022/11/21 10:52:17;;;;;;;2.40;0.70;;;;;;;;;;4999689;28;20065;-74
2022/11/21 10:55:04;;;;;;;1.65;0.60;;;;;;;;;;5001396;28;20418;-71
2022/11/21 10:57:36;;;;;;;0.70;0.70;;;;;;;;;;5000257;28;20041;-72
2022/11/21 11:00:13;;;;;;;0.70;0.70;;;;;;;;;;5001245;28;20414;-71
2022/11/21 11:03:01;;;;;;;2.13;0.60;;;;;;;;;;4999650;28;20049;-72
2022/11/21 11:05:28;;;;;;;0.75;0.50;;;;;;;;;;5000085;28;20038;-70
2022/11/21 11:08:06;;;;;;;1.52;0.80;;;;;;;;;;4997895;28;20328;-70
2022/11/21 11:10:43;;;;;;;3.22;1.00;;;;;;;;;;4966550;28;20459;-72
2022/11/21 11:13:32;;;;;;;3.55;0.75;;;;;;;;;;4999152;28;20049;-73
2022/11/21 11:16:10;;;;;;;4.35;0.75;;;;;;;;;;4999098;28;20061;-74
2022/11/21 11:18:58;;;;;;;1.77;0.60;;;;;;;;;;5001266;28;20057;-73
2022/11/21 11:21:40;;;;;;;0.50;0.40;;;;;;;;;;5000083;28;20476;-73
2022/11/21 11:24:08;;;;;;;2.55;0.70;;;;;;;;;;5010928;28;20050;-71
2022/11/21 11:26:46;;;;;;;1.30;0.55;;;;;;;;;;5001407;28;20041;-73
2022/11/21 11:29:14;;;;;;;0.73;0.50;;;;;;;;;;5001420;28;20046;-72
2022/11/21 11:31:50;;;;;;;1.13;0.70;;;;;;;;;;4999852;28;20061;-71
2022/11/21 11:34:16;;;;;;;1.17;0.60;;;;;;;;;;4999043;28;20133;-72
2022/11/21 11:36:48;;;;;;;0.93;0.80;;;;;;;;;;4999456;28;20109;-72
2022/11/21 11:39:26;;;;;;;2.43;0.60;;;;;;;;;;5002414;28;20057;-72
2022/11/21 11:48:06;;;;;;;1.33;0.70;;;;;;;;;;5000596;28;20038;-70
2022/11/21 11:50:45;;;;;;;1.75;0.40;;;;;;;;;;4999757;28;20061;-73
2022/11/21 11:53:26;;;;;;;3.25;0.80;;;;;;;;;;4999250;28;20045;-72
2022/11/21 11:56:14;;;;;;;1.88;0.55;;;;;;;;;;5000230;28;20050;-74
2022/11/21 11:58:51;;;;;;;1.27;0.60;;;;;;;;;;5012504;28;20053;-71
2022/11/21 12:01:49;;;;;;;0.70;0.70;;;;;;;;;;5000014;28;20137;-71
2022/11/21 12:04:17;;;;;;;0.90;0.70;;;;;;;;;;4998269;28;20036;-72
2022/11/21 12:07:05;;;;;;;0.80;0.80;;;;;;;;;;5000620;28;20157;-73
2022/11/21 12:09:33;;;;;;;5.85;1.27;;;;;;;;;;4999972;28;20120;-72
2022/11/21 12:12:15;;;;;;;1.65;1.00;;;;;;;;;;4999297;28;20061;-71
2022/11/21 12:18:01;;;;;;;3.85;1.20;;;;;;;;;;5001252;28;20056;-71
2022/11/21 12:20:58;;;;;;;2.42;0.85;;;;;;;;;;5000245;28;20057;-72
2022/11/21 12:23:35;;;;;;;2.67;0.85;;;;;;;;;;5002793;28;20073;-73
2022/11/21 12:26:19;;;;;;;1.65;0.80;;;;;;;;;;5001621;28;20068;-76
2022/11/21 12:29:03;;;;;;;2.63;1.10;;;;;;;;;;5002722;28;20073;-70
2022/11/21 12:31:59;;;;;;;3.30;0.93;;;;;;;;;;5001377;28;20081;-73
2022/11/21 12:34:31;;;;;;;1.88;0.80;;;;;;;;;;5003512;28;20099;-73
2022/11/21 12:37:09;;;;;;;1.05;0.65;;;;;;;;;;5003535;28;20092;-77
2022/11/21 12:39:44;;;;;;;1.98;0.80;;;;;;;;;;4998504;28;20077;-75
2022/11/21 12:45:30;;;;;;;0.98;0.60;;;;;;;;;;4971703;28;20050;-71
2022/11/21 12:54:38;;;;;;;1.45;0.77;;;;;;;;;;5003480;28;20596;-72
2022/11/21 12:57:08;;;;;;;1.23;0.70;;;;;;;;;;5002633;28;20046;-71
2022/11/21 13:00:06;;;;;;;2.05;0.85;;;;;;;;;;5002461;28;20518;-72
2022/11/21 13:02:46;;;;;;;1.75;0.80;;;;;;;;;;4999277;28;20049;-71
2022/11/21 13:05:18;;;;;;;3.00;1.00;;;;;;;;;;5003582;28;20900;-71
2022/11/21 13:07:45;;;;;;;3.33;1.17;;;;;;;;;;5003189;28;20077;-72
2022/11/21 13:10:16;;;;;;;1.33;0.75;;;;;;;;;;5003249;28;20045;-73
2022/11/21 13:13:08;;;;;;;1.52;0.80;;;;;;;;;;5003609;28;20132;-70
2022/11/21 13:15:52;;;;;;;6.38;1.00;;;;;;;;;;5001200;28;20049;-71
2022/11/21 13:18:24;;;;;;;1.63;0.68;;;;;;;;;;5002863;28;20049;-74
2022/11/21 13:20:51;;;;;;;6.97;1.27;;;;;;;;;;5003200;28;20045;-71
2022/11/21 13:23:40;;;;;;;2.78;0.50;;;;;;;;;;5002046;28;20926;-70
2022/11/21 13:26:29;;;;;;;1.88;0.90;;;;;;;;;;4995289;28;20042;-69
2022/11/21 13:29:11;;;;;;;3.20;0.60;;;;;;;;;;4990663;28;20144;-69
2022/11/21 13:31:37;;;;;;;0.63;0.60;;;;;;;;;;5001895;28;20414;-70
2022/11/21 13:34:04;;;;;;;2.40;0.82;;;;;;;;;;5002909;28;20042;-69
2022/11/21 13:36:32;;;;;;;0.77;0.70;;;;;;;;;;5001321;28;20410;-71
2022/11/21 13:38:58;;;;;;;0.68;0.60;;;;;;;;;;5001621;28;21206;-74
2022/11/21 13:44:31;;;;;;;1.20;0.75;;;;;;;;;;4999711;28;20220;-71
2022/11/21 13:47:08;;;;;;;0.98;0.85;;;;;;;;;;5000726;28;20046;-73
2022/11/21 13:49:42;;;;;;;3.33;0.70;;;;;;;;;;5003047;28;20133;-72
2022/11/21 13:52:22;;;;;;;2.17;0.80;;;;;;;;;;4999307;28;20152;-73
2022/11/21 13:54:48;;;;;;;1.75;0.70;;;;;;;;;;5001734;28;20061;-73
2022/11/21 13:57:38;;;;;;;3.22;0.70;;;;;;;;;;4998576;28;20038;-71
2022/11/21 14:00:31;;;;;;;2.67;0.70;;;;;;;;;;5000661;28;20080;-72
2022/11/21 14:03:15;;;;;;;;;;;;;;;;;;5001194;28;20034;-70
2022/11/21 14:05:46;;;;;;;0.75;0.60;;;;;;;;;;5001891;28;20341;-71
2022/11/21 14:08:22;;;;;;;1.23;0.80;;;;;;;;;;4999625;28;20060;-73
2022/11/21 14:10:50;;;;;;;4.05;0.90;;;;;;;;;;4999578;28;20077;-71
2022/11/21 14:13:37;;;;;;;1.30;0.90;;;;;;;;;;5000243;28;20049;-70
2022/11/21 14:16:22;;;;;;;0.80;0.52;;;;;;;;;;5001014;28;20120;-70
2022/11/21 14:18:48;;;;;;;1.08;0.60;;;;;;;;;;5001674;28;20056;-72
2022/11/21 14:21:21;;;;;;;0.70;0.50;;;;;;;;;;5000908;28;20152;-71
2022/11/21 14:23:47;;;;;;;2.42;0.80;;;;;;;;;;5001024;28;20081;-74
2022/11/21 14:26:20;;;;;;;1.10;0.60;;;;;;;;;;5002045;28;20073;-71
2022/11/21 14:28:46;;;;;;;1.05;0.68;;;;;;;;;;4996404;28;20144;-70
2022/11/21 14:31:12;;;;;;;3.15;0.85;;;;;;;;;;4997874;28;20121;-71
2022/11/21 14:33:42;;;;;;;2.80;1.20;;;;;;;;;;4999899;28;20057;-72
2022/11/21 14:36:07;;;;;;;4.38;0.85;;;;;;;;;;4999455;28;20053;-72
2022/11/21 14:38:39;;;;;;;1.58;0.52;;;;;;;;;;4998498;28;20103;-71
2022/11/21 14:41:33;;;;;;;1.27;0.88;;;;;;;;;;4998291;28;20138;-71
2022/11/21 14:43:58;;;;;;;4.57;0.82;;;;;;;;;;4979336;28;20081;-74
2022/11/21 14:46:31;;;;;;;2.13;0.95;;;;;;;;;;4999398;28;20085;-71
2022/11/21 14:49:16;;;;;;;0.60;0.60;;;;;;;;;;4995245;28;20057;-72
2022/11/21 14:52:11;;;;;;;1.77;0.80;;;;;;;;;;4999672;28;20069;-72
2022/11/21 14:54:54;;;;;;;3.47;0.90;;;;;;;;;;4968336;28;20119;-73
2022/11/21 14:57:26;;;;;;;6.35;1.00;;;;;;;;;;4999627;28;20045;-71
2022/11/21 14:59:53;;;;;;;3.95;1.13;;;;;;;;;;5002497;28;20050;-72
2022/11/21 15:02:22;;;;;;;1.13;0.82;;;;;;;;;;4999179;28;20053;-72
2022/11/21 15:04:49;;;;;;;2.55;0.90;;;;;;;;;;4998773;28;20046;-69
2022/11/21 15:07:20;;;;;;;2.35;0.93;;;;;;;;;;5005979;28;20794;-72
2022/11/21 15:09:45;;;;;;;2.95;1.00;;;;;;;;;;4997074;28;20532;-72
2022/11/21 15:12:15;;;;;;;3.20;0.98;;;;;;;;;;4996694;28;20099;-70
2022/11/21 15:14:52;;;;;;;4.05;1.30;;;;;;;;;;4996681;28;20112;-69
2022/11/21 15:17:21;;;;;;;2.15;0.98;;;;;;;;;;4999560;28;20514;-72
2022/11/21 15:20:03;;;;;;;1.55;0.70;;;;;;;;;;4998301;28;20502;-72
2022/11/21 15:22:34;;;;;;;5.28;1.02;;;;;;;;;;4997332;28;20131;-70
2022/11/21 15:25:17;;;;;;;3.80;1.20;;;;;;;;;;4997668;28;20050;-70
2022/11/21 15:28:14;;;;;;;1.88;1.00;;;;;;;;;;4997913;28;20137;-70
2022/11/21 15:30:39;;;;;;;2.17;0.93;;;;;;;;;;4973254;28;20081;-73
2022/11/21 15:33:15;;;;;;;4.80;1.02;;;;;;;;;;4999488;28;20141;-71
2022/11/21 15:35:43;;;;;;;3.05;1.10;;;;;;;;;;4999757;28;20058;-71
2022/11/21 15:38:26;;;;;;;1.25;0.98;;;;;;;;;;4998021;28;20091;-69
2022/11/21 15:40:57;;;;;;;2.50;1.10;;;;;;;;;;4999043;28;20054;-70